createdAt,value
2023-01-07T00:00:08.498Z,6.56
2023-01-07T00:02:10.118Z,6.42
2023-01-07T00:04:13.161Z,6.27
2023-01-07T00:06:16.453Z,6.10
2023-01-07T00:08:18.019Z,5.73
2023-01-07T00:10:19.566Z,5.34
2023-01-07T00:12:21.164Z,5.25
2023-01-07T00:14:22.739Z,5.22
2023-01-07T00:16:25.543Z,5.10
2023-01-07T00:18:27.230Z,4.94
2023-01-07T00:20:28.800Z,4.96
2023-01-07T00:22:30.647Z,4.86
2023-01-07T00:24:32.104Z,4.96
2023-01-07T00:26:34.637Z,5.06
2023-01-07T00:28:37.731Z,5.15
2023-01-07T00:30:39.325Z,5.31
2023-01-07T00:32:59.717Z,5.36
2023-01-07T00:35:01.388Z,5.56
2023-01-07T00:37:38.126Z,5.75
2023-01-07T00:39:41.297Z,5.93
2023-01-07T00:42:02.536Z,5.68
2023-01-07T00:44:04.719Z,5.47
2023-01-07T00:46:06.400Z,5.40
2023-01-07T00:48:07.907Z,5.31
2023-01-07T00:50:09.496Z,5.33
2023-01-07T00:52:11.068Z,5.38
2023-01-07T00:54:12.571Z,5.50
2023-01-07T00:56:19.201Z,5.41
2023-01-07T00:58:21.657Z,5.46
2023-01-07T01:00:23.671Z,5.57
2023-01-07T01:02:26.441Z,5.67
2023-01-07T01:04:28.360Z,5.79
2023-01-07T01:06:30.189Z,5.90
2023-01-07T01:08:31.970Z,6.01
2023-01-07T01:10:33.675Z,6.07
2023-01-07T01:12:35.464Z,6.08
2023-01-07T01:14:36.996Z,6.14
2023-01-07T01:16:38.693Z,6.16
2023-01-07T01:18:40.416Z,6.18
2023-01-07T01:20:41.957Z,6.23
2023-01-07T01:22:43.720Z,6.24
2023-01-07T01:24:45.325Z,6.23
2023-01-07T01:26:46.858Z,6.21
2023-01-07T01:28:48.359Z,6.22
2023-01-07T01:30:54.803Z,6.23
2023-01-07T01:32:56.469Z,6.18
2023-01-07T01:34:58.079Z,6.08
2023-01-07T01:37:00.781Z,6.13
2023-01-07T01:39:02.417Z,6.14
2023-01-07T01:41:04.076Z,6.13
2023-01-07T01:43:05.626Z,6.17
2023-01-07T01:45:07.407Z,6.18
2023-01-07T01:47:14.701Z,6.19
2023-01-07T01:49:30.956Z,6.21
2023-01-07T01:51:34.894Z,6.22
2023-01-07T01:53:36.461Z,6.15
2023-01-07T01:55:39.027Z,6.16
2023-01-07T01:57:40.633Z,6.18
2023-01-07T01:59:42.695Z,6.16
2023-01-07T02:01:44.974Z,6.11
2023-01-07T02:03:47.046Z,6.01
2023-01-07T02:05:48.538Z,6.00
2023-01-07T02:07:50.068Z,5.97
2023-01-07T02:09:57.155Z,5.95
2023-01-07T02:12:04.775Z,5.97
2023-01-07T02:14:06.585Z,6.01
2023-01-07T02:16:08.168Z,6.00
2023-01-07T02:18:29.011Z,5.97
2023-01-07T02:20:49.194Z,5.92
2023-01-07T02:22:56.551Z,5.91
2023-01-07T02:25:13.524Z,5.95
2023-01-07T02:27:15.210Z,5.92
2023-01-07T02:29:35.592Z,5.58
2023-01-07T02:31:55.798Z,5.50
2023-01-07T02:34:16.049Z,5.44
2023-01-07T02:36:20.597Z,4.93
2023-01-07T02:38:22.212Z,4.98
2023-01-07T02:40:29.824Z,4.82
2023-01-07T02:42:37.236Z,4.67
2023-01-07T02:44:42.018Z,4.67
2023-01-07T02:46:47.914Z,4.75
2023-01-07T02:48:49.423Z,4.83
2023-01-07T02:50:50.956Z,4.61
2023-01-07T02:52:53.841Z,4.54
2023-01-07T02:54:58.805Z,4.58
2023-01-07T02:57:15.432Z,4.49
2023-01-07T02:59:23.198Z,4.47
2023-01-07T03:01:28.708Z,4.66
2023-01-07T03:03:42.458Z,4.83
2023-01-07T03:06:02.548Z,4.91
2023-01-07T03:08:04.075Z,5.05
2023-01-07T03:10:24.130Z,5.19
2023-01-07T03:12:44.451Z,5.25
2023-01-07T03:14:48.379Z,5.04
2023-01-07T03:16:58.112Z,4.54
2023-01-07T03:19:00.658Z,4.58
2023-01-07T03:21:03.716Z,4.61
2023-01-07T03:23:06.744Z,4.70
2023-01-07T03:25:08.327Z,4.85
2023-01-07T03:27:09.841Z,4.96
2023-01-07T03:29:12.165Z,5.09
2023-01-07T03:31:14.263Z,5.23
2023-01-07T03:33:21.941Z,5.34
2023-01-07T03:35:23.624Z,5.42
2023-01-07T03:37:25.591Z,5.43
2023-01-07T03:39:27.432Z,5.47
2023-01-07T03:41:47.688Z,5.47
2023-01-07T03:43:49.187Z,5.39
2023-01-07T03:45:50.901Z,5.40
2023-01-07T03:47:53.704Z,5.42
2023-01-07T03:49:55.609Z,5.26
2023-01-07T03:51:57.088Z,5.29
2023-01-07T03:53:58.709Z,5.25
2023-01-07T03:56:00.519Z,5.31
2023-01-07T03:58:02.427Z,5.37
2023-01-07T04:00:05.391Z,5.46
2023-01-07T04:02:06.990Z,5.52
2023-01-07T04:04:08.775Z,5.63
2023-01-07T04:06:10.473Z,5.70
2023-01-07T04:08:12.158Z,5.72
2023-01-07T04:10:13.780Z,5.70
2023-01-07T04:12:15.667Z,5.67
2023-01-07T04:14:17.535Z,5.56
2023-01-07T04:16:19.355Z,5.55
2023-01-07T04:18:20.967Z,5.61
2023-01-07T04:20:22.548Z,5.67
2023-01-07T04:22:24.233Z,5.66
2023-01-07T04:24:25.754Z,5.69
2023-01-07T04:26:27.263Z,5.74
2023-01-07T04:28:28.880Z,5.73
2023-01-07T04:30:30.463Z,5.81
2023-01-07T04:32:32.096Z,5.84
2023-01-07T04:34:33.723Z,5.85
2023-01-07T04:36:35.542Z,5.82
2023-01-07T04:38:37.166Z,5.80
2023-01-07T04:40:38.687Z,5.84
2023-01-07T04:42:40.202Z,5.91
2023-01-07T04:44:41.999Z,5.99
2023-01-07T04:46:44.131Z,5.99
2023-01-07T04:48:45.796Z,6.00
2023-01-07T04:50:48.370Z,6.00
2023-01-07T04:52:50.234Z,6.01
2023-01-07T04:54:51.904Z,6.00
2023-01-07T04:56:53.747Z,6.00
2023-01-07T04:58:55.427Z,6.03
2023-01-07T05:00:58.626Z,5.98
2023-01-07T05:03:00.446Z,5.93
2023-01-07T05:05:02.000Z,6.04
2023-01-07T05:07:03.534Z,6.08
2023-01-07T05:09:05.380Z,6.12
2023-01-07T05:11:06.902Z,6.13
2023-01-07T05:13:10.738Z,6.15
2023-01-07T05:15:12.552Z,6.12
2023-01-07T05:17:14.401Z,6.11
2023-01-07T05:19:16.075Z,6.13
2023-01-07T05:21:18.149Z,6.16
2023-01-07T05:23:19.855Z,6.12
2023-01-07T05:25:21.482Z,6.14
2023-01-07T05:27:22.988Z,6.20
2023-01-07T05:29:24.439Z,6.22
2023-01-07T05:31:26.029Z,6.20
2023-01-07T05:33:27.864Z,6.29
2023-01-07T05:35:29.631Z,6.32
2023-01-07T05:37:31.196Z,6.33
2023-01-07T05:39:32.928Z,6.24
2023-01-07T05:41:34.539Z,5.98
2023-01-07T05:43:36.154Z,5.80
2023-01-07T05:45:37.752Z,5.82
2023-01-07T05:47:39.289Z,5.80
2023-01-07T05:49:40.769Z,5.80
2023-01-07T05:51:42.283Z,5.80
2023-01-07T05:53:43.780Z,5.80
2023-01-07T05:55:45.294Z,5.77
2023-01-07T05:57:46.809Z,5.46
2023-01-07T05:59:48.436Z,5.25
2023-01-07T06:01:50.184Z,5.20
2023-01-07T06:03:52.007Z,5.21
2023-01-07T06:05:53.579Z,5.20
2023-01-07T06:07:55.098Z,5.10
2023-01-07T06:09:56.852Z,5.00
2023-01-07T06:11:58.607Z,5.00
2023-01-07T06:14:00.304Z,5.13
2023-01-07T06:16:02.390Z,5.29
2023-01-07T06:18:04.130Z,5.41
2023-01-07T06:20:06.176Z,5.48
2023-01-07T06:22:07.815Z,5.43
2023-01-07T06:24:10.631Z,5.44
2023-01-07T06:26:12.075Z,5.50
2023-01-07T06:28:13.744Z,6.16
2023-01-07T06:30:15.324Z,6.91
2023-01-07T06:32:16.883Z,6.96
2023-01-07T06:34:18.559Z,6.75
2023-01-07T06:36:20.267Z,6.51
2023-01-07T06:38:21.968Z,6.13
2023-01-07T06:40:23.633Z,6.17
2023-01-07T06:42:25.206Z,6.59
2023-01-07T06:44:26.711Z,7.03
2023-01-07T06:46:28.299Z,7.18
2023-01-07T06:48:30.316Z,7.12
2023-01-07T06:50:31.801Z,7.13
2023-01-07T06:52:33.547Z,7.15
2023-01-07T06:54:35.199Z,7.20
2023-01-07T06:56:36.761Z,7.21
2023-01-07T06:58:38.542Z,7.25
2023-01-07T07:00:40.129Z,7.20
2023-01-07T07:02:41.705Z,7.12
2023-01-07T07:04:43.286Z,7.05
2023-01-07T07:06:44.775Z,7.02
2023-01-07T07:08:46.327Z,6.75
2023-01-07T07:10:48.002Z,6.30
2023-01-07T07:12:49.512Z,6.30
2023-01-07T07:14:51.067Z,6.44
2023-01-07T07:16:52.856Z,6.58
2023-01-07T07:18:54.565Z,6.55
2023-01-07T07:20:56.055Z,6.66
2023-01-07T07:22:57.748Z,6.76
2023-01-07T07:24:59.272Z,6.28
2023-01-07T07:27:00.767Z,6.05
2023-01-07T07:29:02.349Z,6.17
2023-01-07T07:31:03.975Z,6.02
2023-01-07T07:33:05.646Z,5.88
2023-01-07T07:35:07.580Z,5.91
2023-01-07T07:37:09.232Z,5.90
2023-01-07T07:39:11.392Z,5.84
2023-01-07T07:41:12.989Z,5.69
2023-01-07T07:43:14.811Z,5.38
2023-01-07T07:45:16.421Z,5.40
2023-01-07T07:47:18.139Z,5.63
2023-01-07T07:49:19.739Z,5.88
2023-01-07T07:51:21.399Z,6.24
2023-01-07T07:53:22.950Z,6.52
2023-01-07T07:55:26.447Z,6.54
2023-01-07T07:57:28.278Z,6.52
2023-01-07T07:59:30.109Z,6.23
2023-01-07T08:01:31.824Z,6.04
2023-01-07T08:03:33.825Z,6.20
2023-01-07T08:05:35.597Z,6.33
2023-01-07T08:07:37.823Z,6.57
2023-01-07T08:09:39.463Z,6.80
2023-01-07T08:11:41.236Z,7.01
2023-01-07T08:13:42.803Z,6.86
2023-01-07T08:15:44.613Z,7.01
2023-01-07T08:17:46.176Z,7.22
2023-01-07T08:19:47.843Z,7.37
2023-01-07T08:21:49.758Z,7.25
2023-01-07T08:23:51.592Z,7.32
2023-01-07T08:25:53.135Z,7.37
2023-01-07T08:27:55.075Z,7.36
2023-01-07T08:29:57.025Z,7.39
2023-01-07T08:31:58.501Z,7.51
2023-01-07T08:34:00.067Z,7.40
2023-01-07T08:36:02.520Z,7.23
2023-01-07T08:38:06.119Z,7.37
2023-01-07T08:40:08.007Z,7.32
2023-01-07T08:42:09.844Z,7.37
2023-01-07T08:44:11.430Z,7.36
2023-01-07T08:46:13.395Z,7.41
2023-01-07T08:48:15.243Z,7.55
2023-01-07T08:50:16.876Z,7.80
2023-01-07T08:52:18.385Z,8.06
2023-01-07T08:54:19.934Z,8.29
2023-01-07T08:56:22.897Z,8.24
2023-01-07T08:58:25.923Z,7.82
2023-01-07T09:00:27.788Z,7.90
2023-01-07T09:02:29.358Z,8.19
2023-01-07T09:04:31.185Z,8.47
2023-01-07T09:06:33.006Z,8.50
2023-01-07T09:08:34.643Z,8.31
2023-01-07T09:10:36.329Z,8.31
2023-01-07T09:12:38.194Z,8.46
2023-01-07T09:14:39.681Z,8.73
2023-01-07T09:16:41.322Z,8.79
2023-01-07T09:18:43.369Z,8.55
2023-01-07T09:20:45.066Z,8.43
2023-01-07T09:22:46.705Z,8.17
2023-01-07T09:24:48.329Z,8.09
2023-01-07T09:26:49.855Z,8.09
2023-01-07T09:28:51.436Z,8.12
2023-01-07T09:30:54.858Z,8.09
2023-01-07T09:32:58.151Z,8.18
2023-01-07T09:34:59.894Z,8.26
2023-01-07T09:37:01.374Z,8.32
2023-01-07T09:39:03.073Z,8.36
2023-01-07T09:41:04.608Z,8.64
2023-01-07T09:44:00.685Z,8.95
2023-01-07T09:45:57.845Z,9.23
2023-01-07T09:48:00.116Z,9.34
2023-01-07T09:50:02.478Z,9.43
2023-01-07T09:52:08.833Z,9.56
2023-01-07T09:54:33.621Z,9.21
2023-01-07T09:56:35.581Z,9.28
2023-01-07T09:58:38.110Z,9.28
2023-01-07T10:00:39.632Z,9.19
2023-01-07T10:02:45.044Z,9.26
2023-01-07T10:04:46.590Z,9.45
2023-01-07T10:06:51.492Z,9.66
2023-01-07T10:09:08.091Z,9.91
2023-01-07T10:11:32.490Z,9.87
2023-01-07T10:13:44.188Z,9.56
2023-01-07T10:15:45.756Z,9.48
2023-01-07T10:17:50.170Z,9.43
2023-01-07T10:19:54.389Z,9.06
2023-01-07T10:22:03.540Z,9.15
2023-01-07T10:24:13.730Z,9.14
2023-01-07T10:26:23.043Z,9.40
2023-01-07T10:28:24.835Z,9.74
2023-01-07T10:30:27.682Z,10.05
2023-01-07T10:32:32.975Z,10.30
2023-01-07T10:34:36.343Z,10.25
2023-01-07T10:36:40.493Z,10.12
2023-01-07T10:38:42.626Z,10.18
2023-01-07T10:40:44.662Z,10.36
2023-01-07T10:42:49.059Z,10.55
2023-01-07T10:45:02.817Z,10.45
2023-01-07T10:47:07.375Z,10.39
2023-01-07T10:49:15.233Z,10.24
2023-01-07T10:51:27.884Z,10.13
2023-01-07T10:53:52.366Z,10.10
2023-01-07T10:56:09.010Z,10.21
2023-01-07T10:58:11.379Z,10.46
2023-01-07T11:00:13.575Z,10.74
2023-01-07T11:02:16.916Z,11.06
2023-01-07T11:04:18.753Z,11.37
2023-01-07T11:06:22.459Z,11.56
2023-01-07T11:08:28.709Z,11.20
2023-01-07T11:10:33.845Z,10.91
2023-01-07T11:12:56.790Z,11.06
2023-01-07T11:14:58.377Z,10.96
2023-01-07T11:17:07.823Z,10.96
2023-01-07T11:19:10.158Z,10.77
2023-01-07T11:21:43.099Z,10.85
2023-01-07T11:23:42.791Z,10.33
2023-01-07T11:25:45.350Z,10.05
2023-01-07T11:27:46.812Z,10.43
2023-01-07T11:29:57.680Z,10.79
2023-01-07T11:31:59.795Z,11.19
2023-01-07T11:34:04.478Z,11.13
2023-01-07T11:36:06.762Z,11.07
2023-01-07T11:38:25.342Z,11.11
2023-01-07T11:40:27.959Z,11.18
2023-01-07T11:42:38.938Z,11.16
2023-01-07T11:44:40.496Z,11.41
2023-01-07T11:46:43.722Z,11.29
2023-01-07T11:48:50.206Z,11.24
2023-01-07T11:50:54.662Z,11.37
2023-01-07T11:52:57.048Z,11.68
2023-01-07T11:54:58.647Z,12.01
2023-01-07T11:57:13.313Z,12.29
2023-01-07T11:59:17.118Z,12.50
2023-01-07T12:01:19.734Z,12.59
2023-01-07T12:03:21.292Z,12.28
2023-01-07T12:05:23.719Z,11.35
2023-01-07T12:07:26.586Z,11.02
2023-01-07T12:09:31.155Z,11.03
2023-01-07T12:11:36.615Z,10.93
2023-01-07T12:13:39.116Z,11.01
2023-01-07T12:15:47.599Z,11.24
2023-01-07T12:17:49.816Z,11.48
2023-01-07T12:19:54.427Z,11.75
2023-01-07T12:22:02.090Z,11.99
2023-01-07T12:24:15.807Z,12.11
2023-01-07T12:26:18.739Z,11.64
2023-01-07T12:28:22.707Z,11.26
2023-01-07T12:30:35.427Z,11.11
2023-01-07T12:33:15.714Z,11.05
2023-01-07T12:35:21.445Z,10.96
2023-01-07T12:37:32.194Z,11.29
2023-01-07T12:39:35.284Z,11.61
2023-01-07T12:41:40.663Z,11.89
2023-01-07T12:43:51.538Z,11.98
2023-01-07T12:45:56.817Z,11.91
2023-01-07T12:48:01.328Z,11.68
2023-01-07T12:50:02.984Z,11.72
2023-01-07T12:52:12.571Z,11.59
2023-01-07T12:54:34.683Z,11.45
2023-01-07T12:56:38.281Z,11.44
2023-01-07T12:58:45.357Z,11.48
2023-01-07T13:00:55.627Z,11.58
2023-01-07T13:03:02.082Z,11.61
2023-01-07T13:05:03.744Z,11.62
2023-01-07T13:07:19.800Z,11.72
2023-01-07T13:09:24.771Z,11.80
2023-01-07T13:11:55.442Z,11.82
2023-01-07T13:13:57.031Z,11.85
2023-01-07T13:15:58.634Z,11.90
2023-01-07T13:18:08.206Z,11.97
2023-01-07T13:20:16.311Z,12.02
2023-01-07T13:22:24.618Z,11.94
2023-01-07T13:24:54.804Z,11.86
2023-01-07T13:27:14.272Z,11.88
2023-01-07T13:29:19.250Z,11.95
2023-01-07T13:31:41.367Z,11.98
2023-01-07T13:33:47.429Z,12.03
2023-01-07T13:36:06.660Z,12.01
2023-01-07T13:38:11.191Z,11.63
2023-01-07T13:40:32.868Z,11.59
2023-01-07T13:42:37.000Z,11.63
2023-01-07T13:44:58.501Z,11.72
2023-01-07T13:47:00.163Z,11.82
2023-01-07T13:49:01.818Z,11.90
2023-01-07T13:51:06.503Z,11.93
2023-01-07T13:53:28.128Z,11.93
2023-01-07T13:55:42.585Z,11.90
2023-01-07T13:57:44.304Z,11.92
2023-01-07T13:59:49.342Z,11.95
2023-01-07T14:02:09.331Z,11.94
2023-01-07T14:04:16.798Z,11.87
2023-01-07T14:06:18.376Z,11.85
2023-01-07T14:08:26.133Z,11.86
2023-01-07T14:10:27.745Z,11.91
2023-01-07T14:12:35.344Z,11.92
2023-01-07T14:14:52.347Z,11.98
2023-01-07T14:16:59.651Z,12.02
2023-01-07T14:19:02.313Z,12.05
2023-01-07T14:21:04.248Z,12.06
2023-01-07T14:23:08.884Z,12.04
2023-01-07T14:25:29.000Z,12.04
2023-01-07T14:27:49.222Z,12.03
2023-01-07T14:29:54.288Z,12.03
2023-01-07T14:32:27.411Z,12.02
2023-01-07T14:34:29.150Z,12.01
2023-01-07T14:37:06.486Z,11.98
2023-01-07T14:39:19.506Z,11.91
2023-01-07T14:41:21.359Z,11.81
2023-01-07T14:43:41.196Z,11.73
2023-01-07T14:45:51.824Z,11.65
2023-01-07T14:47:53.739Z,11.57
2023-01-07T14:50:13.887Z,11.50
2023-01-07T14:52:39.173Z,11.41
2023-01-07T14:54:59.551Z,11.28
2023-01-07T14:57:06.791Z,11.17
2023-01-07T14:59:08.476Z,11.14
2023-01-07T15:01:16.271Z,11.12
2023-01-07T15:03:36.767Z,11.04
2023-01-07T15:05:56.772Z,10.97
2023-01-07T15:08:19.272Z,10.89
2023-01-07T15:10:43.220Z,10.79
2023-01-07T15:13:04.430Z,10.72
2023-01-07T15:15:33.507Z,10.69
2023-01-07T15:17:38.490Z,10.64
2023-01-07T15:19:40.103Z,10.60
2023-01-07T15:21:51.827Z,10.52
2023-01-07T15:23:56.309Z,10.48
2023-01-07T15:25:57.762Z,10.43
2023-01-07T15:28:02.280Z,10.35
2023-01-07T15:30:22.431Z,10.32
2023-01-07T15:32:29.717Z,10.27
2023-01-07T15:34:31.579Z,10.23
2023-01-07T15:36:33.260Z,10.19
2023-01-07T15:38:34.711Z,10.14
2023-01-07T15:40:36.215Z,10.12
2023-01-07T15:42:37.916Z,10.09
2023-01-07T15:44:41.063Z,10.02
2023-01-07T15:46:43.068Z,9.98
2023-01-07T15:48:44.739Z,9.92
2023-01-07T15:50:46.267Z,9.90
2023-01-07T15:52:51.464Z,9.86
2023-01-07T15:54:52.910Z,9.83
2023-01-07T15:56:55.997Z,9.80
2023-01-07T15:58:57.726Z,9.77
2023-01-07T16:00:59.320Z,9.76
2023-01-07T16:03:01.085Z,9.73
2023-01-07T16:05:03.300Z,9.69
2023-01-07T16:07:04.891Z,9.63
2023-01-07T16:09:18.472Z,9.62
2023-01-07T16:11:24.904Z,9.57
2023-01-07T16:13:26.455Z,9.54
2023-01-07T16:15:35.254Z,9.53
2023-01-07T16:17:36.847Z,9.50
2023-01-07T16:19:38.375Z,9.43
2023-01-07T16:21:40.706Z,9.39
2023-01-07T16:23:42.690Z,9.38
2023-01-07T16:25:45.007Z,9.36
2023-01-07T16:27:46.533Z,9.37
2023-01-07T16:29:51.889Z,9.34
2023-01-07T16:31:53.570Z,9.34
2023-01-07T16:33:56.168Z,9.31
2023-01-07T16:35:58.554Z,9.27
2023-01-07T16:38:00.747Z,9.24
2023-01-07T16:40:02.474Z,9.20
2023-01-07T16:42:22.824Z,9.17
2023-01-07T16:44:40.620Z,9.20
2023-01-07T16:46:43.080Z,9.18
2023-01-07T16:48:45.049Z,9.15
2023-01-07T16:50:46.757Z,9.14
2023-01-07T16:52:52.032Z,9.15
2023-01-07T16:54:53.564Z,9.15
2023-01-07T16:56:58.742Z,9.14
2023-01-07T16:59:01.528Z,9.18
2023-01-07T17:01:03.261Z,9.17
2023-01-07T17:03:04.801Z,9.13
2023-01-07T17:05:12.666Z,9.12
2023-01-07T17:07:26.773Z,9.15
2023-01-07T17:09:32.631Z,9.08
2023-01-07T17:11:36.216Z,9.02
2023-01-07T17:13:38.967Z,8.98
2023-01-07T17:15:40.815Z,8.94
2023-01-07T17:17:42.347Z,8.92
2023-01-07T17:19:47.876Z,8.89
2023-01-07T17:21:49.322Z,8.91
2023-01-07T17:23:50.814Z,8.91
2023-01-07T17:25:58.789Z,8.92
2023-01-07T17:28:00.968Z,8.81
2023-01-07T17:30:03.464Z,8.68
2023-01-07T17:32:06.159Z,8.53
2023-01-07T17:34:09.487Z,8.46
2023-01-07T17:36:17.860Z,8.46
2023-01-07T17:38:19.388Z,8.43
2023-01-07T17:40:21.069Z,8.37
2023-01-07T17:42:43.278Z,8.20
2023-01-07T17:44:45.905Z,7.86
2023-01-07T17:46:47.496Z,7.60
2023-01-07T17:48:49.297Z,7.45
2023-01-07T17:50:50.950Z,7.46
2023-01-07T17:52:53.379Z,7.35
2023-01-07T17:54:54.925Z,7.42
2023-01-07T17:56:56.440Z,7.54
2023-01-07T17:58:58.115Z,7.66
2023-01-07T18:01:00.320Z,7.71
2023-01-07T18:03:01.947Z,7.84
2023-01-07T18:05:03.630Z,7.86
2023-01-07T18:07:05.168Z,7.93
2023-01-07T18:09:08.770Z,7.99
2023-01-07T18:11:30.864Z,8.03
2023-01-07T18:13:32.459Z,8.06
2023-01-07T18:15:34.006Z,8.11
2023-01-07T18:17:35.696Z,8.17
2023-01-07T18:19:37.210Z,8.18
2023-01-07T18:21:38.779Z,8.25
2023-01-07T18:23:40.284Z,8.23
2023-01-07T18:25:45.017Z,8.23
2023-01-07T18:27:46.972Z,8.15
2023-01-07T18:29:48.555Z,8.15
2023-01-07T18:31:50.252Z,8.16
2023-01-07T18:33:51.771Z,8.14
2023-01-07T18:35:53.674Z,8.13
2023-01-07T18:37:56.061Z,8.11
2023-01-07T18:40:06.238Z,8.12
2023-01-07T18:42:07.756Z,8.09
2023-01-07T18:44:09.431Z,8.10
2023-01-07T18:46:11.136Z,8.08
2023-01-07T18:48:13.138Z,8.07
2023-01-07T18:50:14.718Z,8.05
2023-01-07T18:52:16.474Z,8.03
2023-01-07T18:54:17.995Z,7.97
2023-01-07T18:56:19.533Z,7.99
2023-01-07T18:58:22.949Z,7.94
2023-01-07T19:00:24.505Z,7.91
2023-01-07T19:02:25.977Z,7.92
2023-01-07T19:04:27.806Z,7.89
2023-01-07T19:06:29.440Z,7.85
2023-01-07T19:08:31.003Z,7.79
2023-01-07T19:10:32.553Z,7.81
2023-01-07T19:12:34.187Z,7.78
2023-01-07T19:14:35.651Z,7.73
2023-01-07T19:16:39.131Z,7.61
2023-01-07T19:18:41.044Z,7.54
2023-01-07T19:20:42.524Z,7.42
2023-01-07T19:22:44.094Z,7.18
2023-01-07T19:24:45.792Z,6.99
2023-01-07T19:26:48.458Z,6.93
2023-01-07T19:28:49.950Z,6.89
2023-01-07T19:30:51.462Z,6.92
2023-01-07T19:32:53.373Z,6.93
2023-01-07T19:34:54.984Z,6.94
2023-01-07T19:36:56.503Z,6.97
2023-01-07T19:38:58.167Z,6.96
2023-01-07T19:40:59.832Z,6.91
2023-01-07T19:43:01.671Z,6.92
2023-01-07T19:45:03.377Z,6.96
2023-01-07T19:47:04.922Z,6.98
2023-01-07T19:49:06.914Z,7.05
2023-01-07T19:51:10.869Z,7.07
2023-01-07T19:53:12.835Z,7.10
2023-01-07T19:55:15.129Z,7.10
2023-01-07T19:57:16.948Z,7.06
2023-01-07T19:59:18.614Z,7.09
2023-01-07T20:01:24.278Z,7.14
2023-01-07T20:03:26.092Z,7.16
2023-01-07T20:05:29.687Z,7.19
2023-01-07T20:07:34.143Z,7.17
2023-01-07T20:09:35.905Z,7.13
2023-01-07T20:11:38.427Z,7.13
2023-01-07T20:13:40.333Z,7.11
2023-01-07T20:15:42.027Z,6.99
2023-01-07T20:17:43.757Z,6.81
2023-01-07T20:19:45.311Z,6.47
2023-01-07T20:21:46.808Z,6.20
2023-01-07T20:23:48.426Z,5.77
2023-01-07T20:25:50.133Z,5.73
2023-01-07T20:27:51.642Z,5.52
2023-01-07T20:29:53.140Z,5.41
2023-01-07T20:31:54.925Z,5.25
2023-01-07T20:33:57.671Z,5.43
2023-01-07T20:36:02.689Z,5.65
2023-01-07T20:38:04.830Z,5.85
2023-01-07T20:40:06.787Z,5.86
2023-01-07T20:42:08.753Z,5.98
2023-01-07T20:44:10.915Z,6.10
2023-01-07T20:46:15.456Z,6.16
2023-01-07T20:48:17.158Z,6.25
2023-01-07T20:50:18.720Z,6.31
2023-01-07T20:52:20.253Z,6.34
2023-01-07T20:54:22.494Z,6.36
2023-01-07T20:56:24.241Z,6.37
2023-01-07T20:58:25.925Z,6.39
2023-01-07T21:00:27.738Z,6.32
2023-01-07T21:02:29.704Z,6.27
2023-01-07T21:04:31.944Z,6.30
2023-01-07T21:06:33.968Z,6.33
2023-01-07T21:08:36.649Z,6.39
2023-01-07T21:10:38.630Z,6.35
2023-01-07T21:12:40.144Z,6.36
2023-01-07T21:14:41.684Z,6.42
2023-01-07T21:16:43.432Z,6.39
2023-01-07T21:18:45.056Z,6.38
2023-01-07T21:20:48.040Z,6.34
2023-01-07T21:22:49.583Z,6.30
2023-01-07T21:24:51.038Z,6.29
2023-01-07T21:26:52.876Z,6.32
2023-01-07T21:28:56.077Z,6.37
2023-01-07T21:31:01.764Z,6.42
2023-01-07T21:33:03.448Z,6.43
2023-01-07T21:35:05.137Z,6.47
2023-01-07T21:37:06.659Z,6.44
2023-01-07T21:39:08.890Z,6.42
2023-01-07T21:41:15.863Z,6.45
2023-01-07T21:43:17.541Z,6.42
2023-01-07T21:45:19.135Z,6.36
2023-01-07T21:47:20.761Z,6.38
2023-01-07T21:49:22.267Z,6.33
2023-01-07T21:51:24.970Z,6.35
2023-01-07T21:53:26.641Z,6.37
2023-01-07T21:55:28.224Z,6.38
2023-01-07T21:57:29.655Z,6.28
2023-01-07T21:59:31.159Z,6.24
2023-01-07T22:01:32.875Z,6.22
2023-01-07T22:03:35.363Z,6.19
2023-01-07T22:05:37.145Z,6.16
2023-01-07T22:07:39.045Z,6.17
2023-01-07T22:09:40.831Z,6.13
2023-01-07T22:11:43.153Z,6.10
2023-01-07T22:13:45.060Z,5.95
2023-01-07T22:15:46.824Z,5.92
2023-01-07T22:17:48.568Z,5.78
2023-01-07T22:19:53.071Z,5.57
2023-01-07T22:21:55.000Z,5.48
2023-01-07T22:23:56.600Z,5.54
2023-01-07T22:26:07.023Z,5.55
2023-01-07T22:28:08.652Z,5.52
2023-01-07T22:30:10.505Z,5.59
2023-01-07T22:32:12.201Z,5.56
2023-01-07T22:34:13.835Z,5.62
2023-01-07T22:36:16.794Z,5.65
2023-01-07T22:38:18.549Z,5.67
2023-01-07T22:40:20.207Z,5.67
2023-01-07T22:42:23.229Z,5.64
2023-01-07T22:44:26.490Z,5.62
2023-01-07T22:46:28.555Z,5.56
2023-01-07T22:48:30.665Z,5.53
2023-01-07T22:50:32.346Z,5.51
2023-01-07T22:52:34.354Z,5.50
2023-01-07T22:54:36.336Z,5.48
2023-01-07T22:56:37.982Z,5.49
2023-01-07T22:58:39.525Z,5.53
2023-01-07T23:00:41.912Z,5.56
2023-01-07T23:02:43.538Z,5.60
2023-01-07T23:04:45.082Z,5.63
2023-01-07T23:06:46.654Z,5.65
2023-01-07T23:08:48.204Z,5.61
2023-01-07T23:10:51.052Z,5.62
2023-01-07T23:12:52.559Z,5.65
2023-01-07T23:14:54.369Z,5.65
2023-01-07T23:16:56.270Z,5.54
2023-01-07T23:18:57.814Z,5.36
2023-01-07T23:20:59.528Z,5.20
2023-01-07T23:23:01.030Z,5.11
2023-01-07T23:25:02.499Z,4.98
2023-01-07T23:27:04.301Z,4.83
2023-01-07T23:29:05.931Z,4.80
2023-01-07T23:31:07.472Z,4.77
2023-01-07T23:33:08.972Z,4.66
2023-01-07T23:35:11.072Z,4.62
2023-01-07T23:37:12.492Z,4.69
2023-01-07T23:39:14.158Z,4.78
2023-01-07T23:41:15.754Z,4.91
2023-01-07T23:43:17.397Z,4.91
2023-01-07T23:45:19.143Z,4.82
2023-01-07T23:47:20.698Z,4.68
2023-01-07T23:49:22.224Z,4.56
2023-01-07T23:51:24.103Z,4.50
2023-01-07T23:53:25.614Z,4.55
2023-01-07T23:55:27.152Z,4.68
2023-01-07T23:57:28.830Z,4.78
2023-01-07T23:59:30.284Z,4.88
